Agana Heights, GU

11:16 AM ChST on August 28, 2015 (GMT +1000)
Maite | | Change Station
CLOSE
Current Station
Personal Weather Station
Location: Maite, GU
Elevation: 140 ft
Nearby Weather Stations
Active Advisory: High Surf Advisory

Elev 140 ft 13.48 °N, 144.76 °E | Updated 27 seconds ago

Partly Cloudy
Partly Cloudy
86.6 °F
Feels Like 100 °F
N
7.0
Wind Variable Wind from NNW
Gusts 10.0 mph

Today
High -- | Low -- °F
--% Chance of Precip.
Yesterday
High -- | Low -- °F
Precip. -- in
6:09 AM 6:35 PM
Waxing Gibbous, 96% visible
Pressure 29.80 in
Visibility 10.0 miles
Clouds Few 2800 ft
Heat Index 100 °F
Dew Point 78 °F
Humidity 76%
Rainfall 0.00 in
Snow Depth Not available.
UV 12.3 out of 12
Pollen Not available.
Air Quality Not available.
Flu Activity Not available.
METAR PGUM 280054Z 31006KT 10SM FEW028 30/23 A2982 RMK AO2 SLP090 T03000233
Pressure 29.80 in
Visibility 10.0 miles
Clouds Few 2800 ft
Heat Index 100 °F
Dew Point 78 °F
Humidity 76%
Rainfall 0.00 in
Snow Depth Not available.
UV 12.3 out of 12
Pollen Not available.
Air Quality Not available.
Flu Activity Not available.
METAR PGUM 280054Z 31006KT 10SM FEW028 30/23 A2982 RMK AO2 SLP090 T03000233

10-Day Weather Forecast

×

Almanac

Astronomy

Aug. 28, 2015 Rise Set
Actual Time
Civil Twilight
Nautical Twilight
Astronomical Twilight
Moon
Length of Visible Light
Length of Day
Tomorrow will be .
, % of the Moon is Illuminated

Today's Extremes

State Highs State Lows

Community

WunderPhotos

Upload Photos

1,850,294 photos uploaded!

WunderBlogs® & News

Nearby

Air Quality

  Air Quality AQ Index Pollutant
Not available.

Snow Depth

Station Depth Elevation

Earthquake Activity

City Distance Mag. Time & Date
Minimum magnitude displayed is 2.5.

Coastal Water Temperatures

Place Temperature

Stations

Nearby Weather Stations

Station Location Temp. Windchill Dew Point Humidity Wind Precip. Elev Updated Type
                   
High Surf Advisory
Statement as of 5:58 AM GMT on August 28, 2015

... High surf advisory in effect until 6 PM chst this evening...

Hazardous surf of 7 to 9 feet along north facing shores is
expected today. Surf is predicted to fall below hazardous levels
by tonight.

Precautionary/preparedness actions...

Avoid venturing near exposed reefs and beaches... especially those
facing north... as rip currents will be life threatening.



Ziobro